createdAt,value
2018-09-03T00:01:38.143Z,11.88
2018-09-03T00:04:05.431Z,13.13
2018-09-03T00:06:32.656Z,15.32
2018-09-03T00:08:59.924Z,16.42
2018-09-03T00:11:27.127Z,11.97
2018-09-03T00:13:54.309Z,10.80
2018-09-03T00:16:21.501Z,12.80
2018-09-03T00:18:48.712Z,11.88
2018-09-03T00:21:16.223Z,14.80
2018-09-03T00:23:43.423Z,11.38
2018-09-03T00:26:10.604Z,14.10
2018-09-03T00:28:37.786Z,10.80
2018-09-03T00:31:10.516Z,11.95
2018-09-03T00:33:43.215Z,11.38
2018-09-03T00:36:16.011Z,13.53
2018-09-03T00:38:48.814Z,14.13
2018-09-03T00:41:21.508Z,13.43
2018-09-03T00:43:54.031Z,13.75
2018-09-03T00:46:26.667Z,13.43
2018-09-03T00:48:53.903Z,12.58
2018-09-03T00:51:21.087Z,13.50
2018-09-03T00:53:48.486Z,12.70
2018-09-03T00:56:15.702Z,12.43
2018-09-03T00:58:42.901Z,12.20
2018-09-03T01:01:10.077Z,11.68
2018-09-03T01:03:37.256Z,13.50
2018-09-03T01:06:04.661Z,15.03
2018-09-03T01:08:31.851Z,11.45
2018-09-03T01:10:59.057Z,12.68
2018-09-03T01:13:26.312Z,13.53
2018-09-03T01:15:53.520Z,14.10
2018-09-03T01:18:20.710Z,13.40
2018-09-03T01:20:48.519Z,13.95
2018-09-03T01:23:15.723Z,12.70
2018-09-03T01:25:42.913Z,14.70
2018-09-03T01:28:10.091Z,12.45
2018-09-03T01:30:37.291Z,13.95
2018-09-03T01:33:04.470Z,11.45
2018-09-03T01:35:31.654Z,15.95
2018-09-03T01:37:58.829Z,15.18
2018-09-03T01:40:26.015Z,16.35
2018-09-03T01:42:53.204Z,14.55
2018-09-03T01:45:20.424Z,15.75
2018-09-03T01:47:47.629Z,16.57
2018-09-03T01:50:14.825Z,15.40
2018-09-03T01:52:42.039Z,18.10
2018-09-03T01:55:09.238Z,14.73
2018-09-03T01:57:36.414Z,15.63
2018-09-03T02:00:03.889Z,14.87
2018-09-03T02:02:31.190Z,15.63
2018-09-03T02:04:58.445Z,14.15
2018-09-03T02:07:25.677Z,13.70
2018-09-03T02:09:52.858Z,15.90
2018-09-03T02:12:20.052Z,13.88
2018-09-03T02:14:47.238Z,15.30
2018-09-03T02:17:15.212Z,15.13
2018-09-03T02:19:42.410Z,15.90
2018-09-03T02:22:09.792Z,16.27
2018-09-03T02:24:37.214Z,13.72
2018-09-03T02:27:04.424Z,14.75
2018-09-03T02:29:31.718Z,13.75
2018-09-03T02:31:58.940Z,18.20
2018-09-03T02:34:26.264Z,17.25
2018-09-03T02:36:53.462Z,15.35
2018-09-03T02:39:20.689Z,14.70
2018-09-03T02:41:47.883Z,14.65
2018-09-03T02:44:15.070Z,18.35
2018-09-03T02:46:42.293Z,12.98
2018-09-03T02:49:09.504Z,14.87
2018-09-03T02:51:36.725Z,13.90
2018-09-03T02:54:03.930Z,13.18
2018-09-03T02:56:31.131Z,15.98
2018-09-03T02:58:58.321Z,14.35
2018-09-03T03:01:25.515Z,15.75
2018-09-03T03:03:52.737Z,16.00
2018-09-03T03:06:19.930Z,13.90
2018-09-03T03:08:47.151Z,13.72
2018-09-03T03:11:14.330Z,15.53
2018-09-03T03:13:41.606Z,14.75
2018-09-03T03:16:08.793Z,16.05
2018-09-03T03:18:36.064Z,15.68
2018-09-03T03:21:03.410Z,14.68
2018-09-03T03:23:30.679Z,14.63
2018-09-03T03:25:57.864Z,17.77
2018-09-03T03:28:25.142Z,15.40
2018-09-03T03:30:52.355Z,14.53
2018-09-03T03:33:19.519Z,14.33
2018-09-03T03:35:46.743Z,15.32
2018-09-03T03:38:13.955Z,15.63
2018-09-03T03:40:41.196Z,15.75
2018-09-03T03:43:08.460Z,15.28
2018-09-03T03:45:35.637Z,14.40
2018-09-03T03:48:02.832Z,13.72
2018-09-03T03:50:30.084Z,15.23
2018-09-03T03:52:57.294Z,15.38
2018-09-03T03:55:24.498Z,14.20
2018-09-03T03:57:51.689Z,13.70
2018-09-03T04:00:18.909Z,14.85
2018-09-03T04:02:46.090Z,17.52
2018-09-03T04:05:13.287Z,17.65
2018-09-03T04:07:40.468Z,15.03
2018-09-03T04:10:07.657Z,16.25
2018-09-03T04:12:34.842Z,16.87
2018-09-03T04:15:02.016Z,15.35
2018-09-03T04:17:29.211Z,14.90
2018-09-03T04:20:02.538Z,15.95
2018-09-03T04:22:29.839Z,14.45
2018-09-03T04:24:57.244Z,13.88
2018-09-03T04:27:24.495Z,16.17
2018-09-03T04:29:51.731Z,16.70
2018-09-03T04:32:18.944Z,13.95
2018-09-03T04:34:46.193Z,16.20
2018-09-03T04:37:13.606Z,16.30
2018-09-03T04:39:40.786Z,16.62
2018-09-03T04:42:07.990Z,14.47
2018-09-03T04:44:35.261Z,16.67
2018-09-03T04:47:02.718Z,16.52
2018-09-03T04:49:30.119Z,14.85
2018-09-03T04:51:57.323Z,14.38
2018-09-03T04:54:24.522Z,15.63
2018-09-03T04:56:51.715Z,14.93
2018-09-03T04:59:18.978Z,18.70
2018-09-03T05:01:46.210Z,17.73
2018-09-03T05:04:13.385Z,15.68
2018-09-03T05:06:40.710Z,16.93
2018-09-03T05:09:07.890Z,14.65
2018-09-03T05:11:35.447Z,15.35
2018-09-03T05:14:02.695Z,18.73
2018-09-03T05:16:30.241Z,19.42
2018-09-03T05:18:57.418Z,20.75
2018-09-03T05:21:24.628Z,21.87
2018-09-03T05:23:51.797Z,15.98
2018-09-03T05:26:18.996Z,16.67
2018-09-03T05:28:46.199Z,15.63
2018-09-03T05:31:13.422Z,15.23
2018-09-03T05:33:40.680Z,16.85
2018-09-03T05:36:07.954Z,13.58
2018-09-03T05:38:35.167Z,14.53
2018-09-03T05:41:04.241Z,13.10
2018-09-03T05:43:32.418Z,14.73
2018-09-03T05:46:01.256Z,15.25
2018-09-03T05:48:29.180Z,14.13
2018-09-03T05:50:59.030Z,21.15
2018-09-03T05:53:27.038Z,14.83
2018-09-03T05:55:54.495Z,14.58
2018-09-03T05:58:21.685Z,16.27
2018-09-03T06:00:48.880Z,14.50
2018-09-03T06:03:16.099Z,12.50
2018-09-03T06:05:43.307Z,15.68
2018-09-03T06:08:10.536Z,18.35
2018-09-03T06:10:37.846Z,13.30
2018-09-03T06:13:04.934Z,13.62
2018-09-03T06:15:32.143Z,16.90
2018-09-03T06:17:59.389Z,15.35
2018-09-03T06:20:26.586Z,13.95
2018-09-03T06:22:53.796Z,17.82
2018-09-03T06:25:21.040Z,13.58
2018-09-03T06:27:48.287Z,14.78
2018-09-03T06:30:15.500Z,12.95
2018-09-03T06:32:42.776Z,12.90
2018-09-03T06:35:09.983Z,13.62
2018-09-03T06:37:37.189Z,11.10
2018-09-03T06:40:04.427Z,19.65
2018-09-03T06:42:31.636Z,16.57
2018-09-03T06:44:58.845Z,19.32
2018-09-03T06:47:26.045Z,22.35
2018-09-03T06:49:53.323Z,18.52
2018-09-03T06:52:20.534Z,17.37
2018-09-03T06:54:47.763Z,20.10
2018-09-03T06:57:14.962Z,18.82
2018-09-03T06:59:42.236Z,17.87
2018-09-03T07:02:09.407Z,16.90
2018-09-03T07:04:36.879Z,20.35
2018-09-03T07:07:04.224Z,19.98
2018-09-03T07:09:31.402Z,15.93
2018-09-03T07:11:58.612Z,20.27
2018-09-03T07:14:25.831Z,19.50
2018-09-03T07:16:53.040Z,18.25
2018-09-03T07:19:20.443Z,19.82
2018-09-03T07:21:47.631Z,17.52
2018-09-03T07:24:14.819Z,16.85
2018-09-03T07:26:42.128Z,18.45
2018-09-03T07:29:09.318Z,16.25
2018-09-03T07:31:36.532Z,16.32
2018-09-03T07:34:03.714Z,17.62
2018-09-03T07:36:30.887Z,15.75
2018-09-03T07:38:58.254Z,16.55
2018-09-03T07:41:25.504Z,16.62
2018-09-03T07:43:52.718Z,15.75
2018-09-03T07:46:19.911Z,18.62
2018-09-03T07:48:47.092Z,18.73
2018-09-03T07:51:14.264Z,18.42
2018-09-03T07:53:41.534Z,18.10
2018-09-03T07:56:08.718Z,21.70
2018-09-03T07:58:35.920Z,16.90
2018-09-03T08:01:03.187Z,15.40
2018-09-03T08:03:30.320Z,16.67
2018-09-03T08:05:57.518Z,19.15
2018-09-03T08:08:24.700Z,16.55
2018-09-03T08:10:51.917Z,20.65
2018-09-03T08:13:24.700Z,24.52
2018-09-03T08:15:51.970Z,17.73
2018-09-03T08:18:19.146Z,18.45
2018-09-03T08:20:46.340Z,20.25
2018-09-03T08:23:13.539Z,20.55
2018-09-03T08:25:41.343Z,19.95
2018-09-03T08:28:08.518Z,18.50
2018-09-03T08:30:35.745Z,19.20
2018-09-03T08:33:02.927Z,17.45
2018-09-03T08:35:30.112Z,20.02
2018-09-03T08:37:57.311Z,17.42
2018-09-03T08:40:24.475Z,20.27
2018-09-03T08:42:51.669Z,17.60
2018-09-03T08:45:18.847Z,20.50
2018-09-03T08:47:46.056Z,19.15
2018-09-03T08:50:13.315Z,17.67
2018-09-03T08:52:40.487Z,19.73
2018-09-03T08:55:07.699Z,22.22
2018-09-03T08:57:34.902Z,22.55
2018-09-03T09:00:02.262Z,21.00
2018-09-03T09:02:29.814Z,34.88
2018-09-03T09:04:57.097Z,24.72
2018-09-03T09:07:24.351Z,26.02
2018-09-03T09:09:51.603Z,19.40
2018-09-03T09:12:18.804Z,36.50
2018-09-03T09:14:46.477Z,25.35
2018-09-03T09:17:13.826Z,24.32
2018-09-03T09:19:41.036Z,22.40
2018-09-03T09:22:08.215Z,22.70
2018-09-03T09:24:35.446Z,19.77
2018-09-03T09:27:02.712Z,22.20
2018-09-03T09:29:30.182Z,32.33
2018-09-03T09:31:57.400Z,19.67
2018-09-03T09:34:24.637Z,24.30
2018-09-03T09:36:51.855Z,19.10
2018-09-03T09:39:19.048Z,19.65
2018-09-03T09:41:46.246Z,19.65
2018-09-03T09:44:13.447Z,17.05
2018-09-03T09:46:40.730Z,24.27
2018-09-03T09:49:08.045Z,17.87
2018-09-03T09:51:35.247Z,15.88
2018-09-03T09:54:02.483Z,15.15
2018-09-03T09:56:29.879Z,20.75
2018-09-03T09:58:57.157Z,17.02
2018-09-03T10:01:29.699Z,18.02
2018-09-03T10:03:57.258Z,24.27
2018-09-03T10:06:25.730Z,19.52
2018-09-03T10:08:52.939Z,19.60
2018-09-03T10:11:20.138Z,17.17
2018-09-03T10:13:47.397Z,19.30
2018-09-03T10:16:14.759Z,16.62
2018-09-03T10:18:42.042Z,18.23
2018-09-03T10:21:09.288Z,16.75
2018-09-03T10:23:36.710Z,18.32
2018-09-03T10:26:03.907Z,17.35
2018-09-03T10:28:31.259Z,21.80
2018-09-03T10:30:58.835Z,17.23
2018-09-03T10:33:26.036Z,15.90
2018-09-03T10:35:53.231Z,19.45
2018-09-03T10:38:20.430Z,30.08
2018-09-03T10:40:47.644Z,35.23
2018-09-03T10:43:14.843Z,30.23
2018-09-03T10:45:45.246Z,25.90
2018-09-03T10:48:13.421Z,24.55
2018-09-03T10:50:40.696Z,25.40
2018-09-03T10:53:08.489Z,23.73
2018-09-03T10:55:35.682Z,35.45
2018-09-03T10:58:02.857Z,18.62
2018-09-03T11:00:30.058Z,19.60
2018-09-03T11:02:57.226Z,19.75
2018-09-03T11:05:24.447Z,20.60
2018-09-03T11:07:51.640Z,23.35
2018-09-03T11:10:18.817Z,18.30
2018-09-03T11:12:45.993Z,17.05
2018-09-03T11:15:13.322Z,17.30
2018-09-03T11:17:40.527Z,15.83
2018-09-03T11:20:10.694Z,17.82
2018-09-03T11:22:37.882Z,20.00
2018-09-03T11:25:05.099Z,16.40
2018-09-03T11:27:32.292Z,26.82
2018-09-03T11:29:59.499Z,24.77
2018-09-03T11:32:26.763Z,12.15
2018-09-03T11:34:53.999Z,20.12
2018-09-03T11:37:21.177Z,13.85
2018-09-03T11:39:48.351Z,15.53
2018-09-03T11:42:15.545Z,17.45
2018-09-03T11:44:45.211Z,18.25
2018-09-03T11:47:13.321Z,25.90
2018-09-03T11:49:43.698Z,14.87
2018-09-03T11:52:11.875Z,15.30
2018-09-03T11:54:40.764Z,30.57
2018-09-03T11:57:10.308Z,23.10
2018-09-03T11:59:38.408Z,18.42
2018-09-03T12:02:06.290Z,14.80
2018-09-03T12:04:33.536Z,13.62
2018-09-03T12:07:00.756Z,20.60
2018-09-03T12:09:27.951Z,15.85
2018-09-03T12:11:55.164Z,12.18
2018-09-03T12:14:26.130Z,12.78
2018-09-03T12:16:53.337Z,14.23
2018-09-03T12:19:20.533Z,9.28
2018-09-03T12:21:47.732Z,11.35
2018-09-03T12:24:14.930Z,11.85
2018-09-03T12:26:42.145Z,10.10
2018-09-03T12:29:09.407Z,10.03
2018-09-03T12:31:36.603Z,13.05
2018-09-03T12:34:03.782Z,8.68
2018-09-03T12:36:30.962Z,10.08
2018-09-03T12:38:58.154Z,11.00
2018-09-03T12:41:25.358Z,37.15
2018-09-03T12:43:52.570Z,23.87
2018-09-03T12:46:19.779Z,6.53
2018-09-03T12:48:46.952Z,20.35
2018-09-03T12:51:14.159Z,19.67
2018-09-03T12:53:41.338Z,6.90
2018-09-03T12:56:08.559Z,8.35
2018-09-03T12:58:35.825Z,6.33
2018-09-03T13:01:02.951Z,18.50
2018-09-03T13:03:30.171Z,17.17
2018-09-03T13:05:57.397Z,8.43
2018-09-03T13:08:24.596Z,13.62
2018-09-03T13:10:51.782Z,10.28
2018-09-03T13:13:18.962Z,6.25
2018-09-03T13:15:46.143Z,9.80
2018-09-03T13:18:13.335Z,6.95
2018-09-03T13:20:40.511Z,8.00
2018-09-03T13:23:07.689Z,7.47
2018-09-03T13:25:34.874Z,7.05
2018-09-03T13:28:02.069Z,7.20
2018-09-03T13:30:29.277Z,6.42
2018-09-03T13:32:56.481Z,7.60
2018-09-03T13:35:23.662Z,5.10
2018-09-03T13:37:50.877Z,12.80
2018-09-03T13:40:18.038Z,7.70
2018-09-03T13:42:45.228Z,9.50
2018-09-03T13:45:12.403Z,6.67
2018-09-03T13:47:39.579Z,5.00
2018-09-03T13:50:06.846Z,4.75
2018-09-03T13:52:34.032Z,5.58
2018-09-03T13:55:01.227Z,5.80
2018-09-03T13:57:28.395Z,4.30
2018-09-03T13:59:55.607Z,9.80
2018-09-03T14:02:22.816Z,20.85
2018-09-03T14:04:50.086Z,16.30
2018-09-03T14:07:17.247Z,4.83
2018-09-03T14:09:44.505Z,6.67
2018-09-03T14:12:11.711Z,4.57
2018-09-03T14:14:38.906Z,6.50
2018-09-03T14:17:06.431Z,5.13
2018-09-03T14:19:33.627Z,4.10
2018-09-03T14:22:00.824Z,5.63
2018-09-03T14:24:28.022Z,5.97
2018-09-03T14:26:56.521Z,5.70
2018-09-03T14:29:24.703Z,5.37
2018-09-03T14:31:51.919Z,8.03
2018-09-03T14:34:19.094Z,6.45
2018-09-03T14:36:46.283Z,5.37
2018-09-03T14:39:13.466Z,6.58
2018-09-03T14:41:40.722Z,6.15
2018-09-03T14:44:08.334Z,7.50
2018-09-03T14:46:35.511Z,6.92
2018-09-03T14:49:02.719Z,7.22
2018-09-03T14:51:29.909Z,6.97
2018-09-03T14:53:57.079Z,7.35
2018-09-03T14:56:24.342Z,6.12
2018-09-03T14:58:51.462Z,5.75
2018-09-03T15:01:18.676Z,6.22
2018-09-03T15:03:45.865Z,8.20
2018-09-03T15:06:13.060Z,5.28
2018-09-03T15:08:40.246Z,5.78
2018-09-03T15:11:07.625Z,5.60
2018-09-03T15:13:34.816Z,5.80
2018-09-03T15:16:02.006Z,5.60
2018-09-03T15:18:29.183Z,10.00
2018-09-03T15:20:56.371Z,6.37
2018-09-03T15:23:23.834Z,8.43
2018-09-03T15:25:51.003Z,5.28
2018-09-03T15:28:18.184Z,5.47
2018-09-03T15:30:45.367Z,5.72
2018-09-03T15:33:12.544Z,6.85
2018-09-03T15:35:39.724Z,5.45
2018-09-03T15:38:06.919Z,6.60
2018-09-03T15:40:34.130Z,15.23
2018-09-03T15:43:01.407Z,6.10
2018-09-03T15:45:28.528Z,7.15
2018-09-03T15:47:55.778Z,8.48
2018-09-03T15:50:22.970Z,10.55
2018-09-03T15:52:50.142Z,9.68
2018-09-03T15:55:17.329Z,7.20
2018-09-03T15:57:44.499Z,7.25
2018-09-03T16:00:11.658Z,5.95
2018-09-03T16:02:39.190Z,5.00
2018-09-03T16:05:06.356Z,6.37
2018-09-03T16:07:33.556Z,7.72
2018-09-03T16:10:00.797Z,9.23
2018-09-03T16:12:27.980Z,5.67
2018-09-03T16:14:55.160Z,7.47
2018-09-03T16:17:22.352Z,5.70
2018-09-03T16:19:49.518Z,6.95
2018-09-03T16:22:16.738Z,8.20
2018-09-03T16:24:43.918Z,7.55
2018-09-03T16:27:11.115Z,9.05
2018-09-03T16:29:38.296Z,7.65
2018-09-03T16:32:05.505Z,7.65
2018-09-03T16:34:32.708Z,6.03
2018-09-03T16:36:59.909Z,7.45
2018-09-03T16:39:27.096Z,7.28
2018-09-03T16:41:54.288Z,7.75
2018-09-03T16:44:21.469Z,8.00
2018-09-03T16:46:48.650Z,14.30
2018-09-03T16:49:15.835Z,9.28
2018-09-03T16:51:43.039Z,8.38
2018-09-03T16:54:10.231Z,7.42
2018-09-03T16:56:37.405Z,7.42
2018-09-03T16:59:04.582Z,7.47
2018-09-03T17:01:31.895Z,8.10
2018-09-03T17:03:58.968Z,7.35
2018-09-03T17:06:26.170Z,6.70
2018-09-03T17:08:53.349Z,7.12
2018-09-03T17:11:20.545Z,7.70
2018-09-03T17:13:47.746Z,6.25
2018-09-03T17:16:14.950Z,6.25
2018-09-03T17:18:42.218Z,6.40
2018-09-03T17:21:09.415Z,7.10
2018-09-03T17:23:36.776Z,9.25
2018-09-03T17:26:03.957Z,7.45
2018-09-03T17:28:31.154Z,7.67
2018-09-03T17:30:58.541Z,7.87
2018-09-03T17:33:25.804Z,7.80
2018-09-03T17:35:52.999Z,7.87
2018-09-03T17:38:20.234Z,7.92
2018-09-03T17:40:47.415Z,8.10
2018-09-03T17:43:14.591Z,9.98
2018-09-03T17:45:41.887Z,8.03
2018-09-03T17:48:09.047Z,9.48
2018-09-03T17:50:36.236Z,8.30
2018-09-03T17:53:03.441Z,9.28
2018-09-03T17:55:30.670Z,8.13
2018-09-03T17:57:57.944Z,8.98
2018-09-03T18:00:25.152Z,11.57
2018-09-03T18:02:52.452Z,9.30
2018-09-03T18:05:19.647Z,8.48
2018-09-03T18:07:46.840Z,9.03
2018-09-03T18:10:14.016Z,9.40
2018-09-03T18:12:41.253Z,11.15
2018-09-03T18:15:08.506Z,10.68
2018-09-03T18:17:35.696Z,11.40
2018-09-03T18:20:02.897Z,12.35
2018-09-03T18:22:30.208Z,10.82
2018-09-03T18:24:57.409Z,10.95
2018-09-03T18:27:24.608Z,11.25
2018-09-03T18:29:51.783Z,11.93
2018-09-03T18:32:18.991Z,12.95
2018-09-03T18:34:46.174Z,13.83
2018-09-03T18:37:13.369Z,13.48
2018-09-03T18:39:40.573Z,13.32
2018-09-03T18:42:07.780Z,15.60
2018-09-03T18:44:34.999Z,16.90
2018-09-03T18:47:02.196Z,16.27
2018-09-03T18:49:29.388Z,15.80
2018-09-03T18:51:56.580Z,15.45
2018-09-03T18:54:23.816Z,18.32
2018-09-03T18:56:51.020Z,15.40
2018-09-03T18:59:18.227Z,15.45
2018-09-03T19:01:45.418Z,16.30
2018-09-03T19:04:12.609Z,17.17
2018-09-03T19:06:39.798Z,15.75
2018-09-03T19:09:07.380Z,17.12
2018-09-03T19:11:34.596Z,18.55
2018-09-03T19:14:01.770Z,19.42
2018-09-03T19:16:28.939Z,24.57
2018-09-03T19:18:56.156Z,18.15
2018-09-03T19:21:23.352Z,20.17
2018-09-03T19:23:50.599Z,19.65
2018-09-03T19:26:17.791Z,19.00
2018-09-03T19:28:44.981Z,18.23
2018-09-03T19:31:12.159Z,19.57
2018-09-03T19:33:39.400Z,20.60
2018-09-03T19:36:06.590Z,20.60
2018-09-03T19:38:33.750Z,19.05
2018-09-03T19:41:00.938Z,19.98
2018-09-03T19:43:28.112Z,18.95
2018-09-03T19:45:55.771Z,18.98
2018-09-03T19:48:22.956Z,20.62
2018-09-03T19:50:50.178Z,23.25
2018-09-03T19:53:17.355Z,22.87
2018-09-03T19:55:44.569Z,19.45
2018-09-03T19:58:11.771Z,23.05
2018-09-03T20:00:38.976Z,18.80
2018-09-03T20:03:06.176Z,20.50
2018-09-03T20:05:33.499Z,19.77
2018-09-03T20:08:00.691Z,19.00
2018-09-03T20:10:27.887Z,18.60
2018-09-03T20:12:55.093Z,17.98
2018-09-03T20:15:27.100Z,18.77
2018-09-03T20:17:54.839Z,19.37
2018-09-03T20:20:22.132Z,19.67
2018-09-03T20:22:49.448Z,19.30
2018-09-03T20:25:16.619Z,16.35
2018-09-03T20:27:44.460Z,16.37
2018-09-03T20:30:11.690Z,18.60
2018-09-03T20:32:38.936Z,22.13
2018-09-03T20:35:06.852Z,17.23
2018-09-03T20:37:34.679Z,16.82
2018-09-03T20:40:02.552Z,15.10
2018-09-03T20:42:29.774Z,16.10
2018-09-03T20:44:57.411Z,16.12
2018-09-03T20:47:25.015Z,14.85
2018-09-03T20:49:52.240Z,15.20
2018-09-03T20:52:19.663Z,15.63
2018-09-03T20:54:47.263Z,17.70
2018-09-03T20:57:15.058Z,15.30
2018-09-03T20:59:42.279Z,15.32
2018-09-03T21:02:09.486Z,16.37
2018-09-03T21:04:36.685Z,15.10
2018-09-03T21:07:03.871Z,16.25
2018-09-03T21:09:31.054Z,15.05
2018-09-03T21:11:58.239Z,16.93
2018-09-03T21:14:25.430Z,14.60
2018-09-03T21:16:52.639Z,18.05
2018-09-03T21:19:19.892Z,21.42
2018-09-03T21:21:47.124Z,44.58
2018-09-03T21:24:14.271Z,30.00
2018-09-03T21:26:41.485Z,26.70
2018-09-03T21:29:08.679Z,22.40
2018-09-03T21:31:35.873Z,23.20
2018-09-03T21:34:03.072Z,23.60
2018-09-03T21:36:30.348Z,21.68
2018-09-03T21:38:57.553Z,22.80
2018-09-03T21:41:24.787Z,20.50
2018-09-03T21:43:51.973Z,26.68
2018-09-03T21:46:19.172Z,27.77
2018-09-03T21:48:46.350Z,26.93
2018-09-03T21:51:13.527Z,25.43
2018-09-03T21:53:40.781Z,19.98
2018-09-03T21:56:07.957Z,24.95
2018-09-03T21:58:35.215Z,18.62
2018-09-03T22:01:02.412Z,18.17
2018-09-03T22:03:29.620Z,21.20
2018-09-03T22:05:57.123Z,19.48
2018-09-03T22:08:24.346Z,20.30
2018-09-03T22:10:51.632Z,19.50
2018-09-03T22:13:19.090Z,26.97
2018-09-03T22:15:46.288Z,20.27
2018-09-03T22:18:13.535Z,20.15
2018-09-03T22:20:40.858Z,22.22
2018-09-03T22:23:08.055Z,26.82
2018-09-03T22:25:35.276Z,20.50
2018-09-03T22:28:02.483Z,19.90
2018-09-03T22:30:29.701Z,19.62
2018-09-03T22:32:56.902Z,19.70
2018-09-03T22:35:24.111Z,22.07
2018-09-03T22:37:51.329Z,21.35
2018-09-03T22:40:18.529Z,21.82
2018-09-03T22:42:45.748Z,25.40
2018-09-03T22:45:13.827Z,24.95
2018-09-03T22:47:41.051Z,27.45
2018-09-03T22:50:09.577Z,27.13
2018-09-03T22:52:36.770Z,25.55
2018-09-03T22:55:03.989Z,23.32
2018-09-03T22:57:31.183Z,21.73
2018-09-03T22:59:58.372Z,23.27
2018-09-03T23:02:25.571Z,24.05
2018-09-03T23:04:53.012Z,24.20
2018-09-03T23:07:20.190Z,23.27
2018-09-03T23:09:47.542Z,25.27
2018-09-03T23:12:14.935Z,24.87
2018-09-03T23:14:42.130Z,22.58
2018-09-03T23:17:09.311Z,27.87
2018-09-03T23:19:36.491Z,30.65
2018-09-03T23:22:03.711Z,25.00
2018-09-03T23:24:30.983Z,23.40
2018-09-03T23:26:58.158Z,27.60
2018-09-03T23:29:25.351Z,30.55
2018-09-03T23:31:52.616Z,26.20
2018-09-03T23:34:19.803Z,32.98
2018-09-03T23:36:46.998Z,28.40
2018-09-03T23:39:14.189Z,38.75
2018-09-03T23:41:41.383Z,31.05
2018-09-03T23:44:08.576Z,39.70
2018-09-03T23:46:35.783Z,35.90
2018-09-03T23:49:02.976Z,31.57
2018-09-03T23:51:30.184Z,28.42
2018-09-03T23:53:57.362Z,53.40
2018-09-03T23:56:24.551Z,31.85
2018-09-03T23:58:51.734Z,23.20
